createdAt,value
2018-04-24T02:59:01.344Z,0.1
2018-04-24T03:00:01.102Z,0.1
2018-04-24T03:01:01.108Z,0.2
2018-04-24T03:02:01.132Z,0.3
2018-04-24T03:04:01.442Z,0.4
2018-04-24T03:05:01.105Z,0.5
2018-04-24T03:07:01.123Z,0.6
2018-04-24T03:08:01.200Z,0.7
2018-04-24T03:09:01.309Z,0.9
2018-04-24T03:10:01.100Z,1.0
2018-04-24T03:11:01.138Z,1.1
2018-04-24T03:12:01.105Z,1.3
2018-04-24T03:13:01.104Z,1.5
2018-04-24T03:14:01.313Z,1.6
2018-04-24T03:15:01.109Z,1.7
2018-04-24T03:16:01.138Z,1.9
2018-04-24T03:17:01.111Z,2.1
2018-04-24T03:18:01.109Z,2.3
2018-04-24T03:19:01.254Z,2.7
2018-04-24T03:20:01.103Z,3.1
2018-04-24T03:21:01.142Z,3.7
2018-04-24T03:22:01.099Z,4.3
2018-04-24T03:23:01.104Z,4.9
2018-04-24T03:24:01.249Z,5.9
2018-04-24T03:25:01.106Z,6.9
2018-04-24T03:26:01.129Z,7.8
2018-04-24T03:27:01.106Z,9.1
2018-04-24T03:28:01.109Z,10.7
2018-04-24T03:29:01.253Z,12.5
2018-04-24T03:30:01.150Z,14.6
2018-04-24T03:31:01.107Z,16.5
2018-04-24T03:32:01.114Z,18.6
2018-04-24T03:33:01.106Z,21.8
2018-04-24T03:34:01.258Z,26.2
2018-04-24T03:35:01.136Z,30.2
2018-04-24T03:36:01.118Z,35.0
2018-04-24T03:37:01.108Z,40.5
2018-04-24T03:38:01.105Z,45.7
2018-04-24T03:39:01.258Z,50.9
2018-04-24T03:40:01.136Z,56.9
2018-04-24T03:41:01.110Z,66.1
2018-04-24T03:42:01.110Z,77.5
2018-04-24T03:43:01.113Z,88.6
2018-04-24T03:44:01.264Z,100.0
2018-04-24T03:45:01.154Z,112.9
2018-04-24T03:46:01.121Z,130.0
2018-04-24T03:47:01.127Z,149.9
2018-04-24T03:48:01.120Z,169.3
2018-04-24T03:50:01.331Z,186.0
2018-04-24T03:51:01.094Z,202.1
2018-04-24T03:52:01.131Z,219.6
2018-04-24T03:53:01.100Z,242.1
2018-04-24T03:54:01.095Z,262.9
2018-04-24T03:55:01.267Z,282.3
2018-04-24T03:56:01.107Z,305.1
2018-04-24T03:57:01.132Z,337.1
2018-04-24T03:58:01.101Z,373.7
2018-04-24T03:59:01.107Z,418.5
2018-04-24T04:00:01.256Z,467.7
2018-04-24T04:01:01.107Z,535.1
2018-04-24T04:02:01.139Z,619.7
2018-04-24T04:03:01.103Z,706.5
2018-04-24T04:04:01.106Z,789.9
2018-04-24T04:05:01.252Z,856.3
2018-04-24T04:06:01.111Z,951.3
2018-04-24T04:07:01.146Z,1058.8
2018-04-24T04:08:01.113Z,1155.0
2018-04-24T04:09:01.125Z,1288.9
2018-04-24T04:10:01.294Z,1414.1
2018-04-24T04:11:01.112Z,1515.8
2018-04-24T04:12:01.150Z,1593.9
2018-04-24T04:13:01.113Z,1686.9
2018-04-24T04:14:01.118Z,1777.1
2018-04-24T04:15:01.263Z,1860.5
2018-04-24T04:16:01.185Z,1923.0
2018-04-24T04:17:01.154Z,1973.6
2018-04-24T04:18:01.111Z,2019.1
2018-04-24T04:19:01.121Z,2066.2
2018-04-24T04:20:01.257Z,2114.1
2018-04-24T04:21:01.112Z,2134.8
2018-04-24T04:22:01.152Z,2151.4
2018-04-24T04:23:01.116Z,2206.7
2018-04-24T04:24:01.114Z,2214.9
2018-04-24T04:26:01.243Z,2228.3
2018-04-24T04:27:01.135Z,2301.9
2018-04-24T04:28:01.099Z,2406.5
2018-04-24T04:29:01.112Z,2554.5
2018-04-24T04:30:01.102Z,2671.1
2018-04-24T04:31:01.242Z,2826.3
2018-04-24T04:32:01.132Z,2950.1
2018-04-24T04:33:01.202Z,3129.3
2018-04-24T04:34:01.100Z,3295.6
2018-04-24T04:35:01.260Z,3492.8
2018-04-24T04:36:01.246Z,3742.2
2018-04-24T04:37:01.143Z,4008.9
2018-04-24T04:38:01.100Z,4362.3
2018-04-24T04:39:01.106Z,4792.1
2018-04-24T04:40:01.107Z,5224.5
2018-04-24T04:41:01.308Z,5724.7
2018-04-24T04:42:01.266Z,6139.8
2018-04-24T04:43:01.106Z,6388.8
2018-04-24T04:44:01.102Z,6659.9
2018-04-24T04:45:01.179Z,7147.9
2018-04-24T04:46:01.248Z,7558.2
2018-04-24T04:47:01.233Z,8259.7
2018-04-24T04:48:01.101Z,8766.9
2018-04-24T04:49:01.106Z,9214.9
2018-04-24T04:50:01.105Z,9513.8
2018-04-24T04:51:01.249Z,9658.7
2018-04-24T04:52:01.205Z,9877.1
2018-04-24T04:53:01.107Z,10227.9
2018-04-24T04:54:01.105Z,10416.5
2018-04-24T04:55:01.109Z,10734.5
2018-04-24T04:56:01.487Z,11056.3
2018-04-24T04:57:01.189Z,11419.1
2018-04-24T04:58:01.113Z,11764.8
2018-04-24T04:59:01.126Z,12002.7
2018-04-24T05:00:01.110Z,12092.1
2018-04-24T05:01:01.276Z,12208.3
2018-04-24T05:02:01.108Z,12056.7
2018-04-24T05:03:01.112Z,12011.2
2018-04-24T05:04:01.108Z,11874.9
2018-04-24T05:05:01.194Z,11989.0
2018-04-24T05:06:01.510Z,12288.2
2018-04-24T05:07:01.110Z,12460.1
2018-04-24T05:08:01.106Z,12339.9
2018-04-24T05:09:01.177Z,12357.0
2018-04-24T05:10:01.116Z,12289.5
2018-04-24T05:11:01.281Z,12047.5
2018-04-24T05:12:01.201Z,11689.8
2018-04-24T05:13:01.107Z,11461.3
2018-04-24T05:14:01.115Z,11282.1
2018-04-24T05:15:01.110Z,11006.7
2018-04-24T05:16:01.451Z,10704.1
2018-04-24T05:17:01.150Z,10561.5
2018-04-24T05:18:01.108Z,10494.4
2018-04-24T05:19:01.111Z,10558.6
2018-04-24T05:20:01.208Z,10702.1
2018-04-24T05:21:01.262Z,10939.9
2018-04-24T05:22:01.155Z,11312.2
2018-04-24T05:23:01.203Z,11760.2
2018-04-24T05:24:01.116Z,12157.7
2018-04-24T05:25:01.116Z,12325.4
2018-04-24T05:26:01.264Z,12599.0
2018-04-24T05:27:01.152Z,13198.3
2018-04-24T05:28:01.115Z,14196.1
2018-04-24T05:29:01.119Z,14855.5
2018-04-24T05:30:01.119Z,15389.1
2018-04-24T05:31:01.259Z,15845.3
2018-04-24T05:32:01.154Z,16440.3
2018-04-24T05:33:01.117Z,16941.9
2018-04-24T05:34:01.118Z,17659.5
2018-04-24T05:35:01.123Z,18243.3
2018-04-24T05:36:01.277Z,18685.4
2018-04-24T05:37:01.154Z,19704.5
2018-04-24T05:38:01.122Z,20603.7
2018-04-24T05:40:01.110Z,21629.5
2018-04-24T05:41:01.256Z,22951.3
2018-04-24T05:42:01.133Z,23891.6
2018-04-24T05:43:01.108Z,24574.5
2018-04-24T05:44:01.104Z,24779.7
2018-04-24T05:45:01.101Z,25023.0
2018-04-24T05:46:01.248Z,25329.0
2018-04-24T05:47:01.138Z,26089.7
2018-04-24T05:48:01.103Z,26281.5
2018-04-24T05:49:01.107Z,26507.8
2018-04-24T05:50:01.109Z,26558.1
2018-04-24T05:51:01.255Z,26493.8
2018-04-24T05:52:01.139Z,26372.3
2018-04-24T05:53:01.142Z,25506.7
2018-04-24T05:54:01.113Z,24765.7
2018-04-24T05:55:01.104Z,24196.9
2018-04-24T05:56:01.252Z,23089.7
2018-04-24T05:57:01.212Z,22237.4
2018-04-24T05:58:01.110Z,21592.5
2018-04-24T05:59:01.128Z,21214.0
2018-04-24T06:00:01.106Z,21035.5
2018-04-24T06:01:01.268Z,21106.5
2018-04-24T06:02:01.104Z,20768.5
2018-04-24T06:03:01.119Z,20417.4
2018-04-24T06:04:01.133Z,20053.9
2018-04-24T06:05:01.108Z,19664.7
2018-04-24T06:06:01.253Z,19375.4
2018-04-24T06:07:01.108Z,18916.9
2018-04-24T06:08:01.109Z,18608.8
2018-04-24T06:09:01.137Z,18299.1
2018-04-24T06:10:01.107Z,17559.4
2018-04-24T06:11:01.317Z,17395.2
2018-04-24T06:12:01.111Z,17260.9
2018-04-24T06:13:01.110Z,16887.7
2018-04-24T06:14:01.142Z,16345.9
2018-04-24T06:15:01.180Z,15953.0
2018-04-24T06:16:01.254Z,15577.5
2018-04-24T06:17:01.112Z,15167.3
2018-04-24T06:18:01.134Z,15379.1
2018-04-24T06:19:01.112Z,15879.1
2018-04-24T06:20:01.116Z,16186.6
2018-04-24T06:21:01.257Z,16709.7
2018-04-24T06:22:01.113Z,17205.8
2018-04-24T06:23:01.140Z,17755.4
2018-04-24T06:24:01.117Z,19008.7
2018-04-24T06:25:01.113Z,20560.1
2018-04-24T06:26:01.252Z,22017.9
2018-04-24T06:27:01.113Z,23351.7
2018-04-24T06:28:01.154Z,24516.2
2018-04-24T06:29:01.115Z,25339.4
2018-04-24T06:30:01.112Z,25851.6
2018-04-24T06:31:01.455Z,26358.4
2018-04-24T06:32:01.116Z,26887.9
2018-04-24T06:33:01.144Z,27037.1
2018-04-24T06:34:01.115Z,27299.9
2018-04-24T06:35:01.113Z,27274.4
2018-04-24T06:36:01.324Z,27130.7
2018-04-24T06:37:01.118Z,26906.9
2018-04-24T06:38:01.149Z,26626.6
2018-04-24T06:39:01.118Z,25850.3
2018-04-24T06:40:01.114Z,25107.0
2018-04-24T06:41:01.256Z,24357.5
2018-04-24T06:42:01.110Z,24524.9
2018-04-24T06:43:01.147Z,24919.5
2018-04-24T06:44:01.115Z,25678.5
2018-04-24T06:45:01.112Z,26537.1
2018-04-24T06:46:01.326Z,27402.5
2018-04-24T06:47:01.117Z,28085.5
2018-04-24T06:48:01.151Z,28701.3
2018-04-24T06:49:01.127Z,28697.6
2018-04-24T06:50:01.117Z,28971.9
2018-04-24T06:51:01.264Z,29026.9
2018-04-24T06:52:01.116Z,29593.1
2018-04-24T06:53:01.154Z,29795.6
2018-04-24T06:54:01.122Z,30093.0
2018-04-24T06:55:01.206Z,30271.3
2018-04-24T06:56:01.257Z,30196.7
2018-04-24T06:57:01.127Z,29361.7
2018-04-24T06:58:01.150Z,28707.3
2018-04-24T06:59:01.115Z,28866.3
2018-04-24T07:01:01.244Z,28473.9
2018-04-24T07:02:01.102Z,27643.5
2018-04-24T07:03:01.133Z,27272.4
2018-04-24T07:04:01.104Z,26925.7
2018-04-24T07:05:01.137Z,26863.8
2018-04-24T07:06:01.255Z,27627.4
2018-04-24T07:07:01.102Z,27748.7
2018-04-24T07:08:01.111Z,28827.7
2018-04-24T07:09:01.103Z,29895.5
2018-04-24T07:10:01.137Z,30997.7
2018-04-24T07:11:01.279Z,31433.4
2018-04-24T07:12:01.106Z,31659.1
2018-04-24T07:13:01.111Z,31801.7
2018-04-24T07:14:01.114Z,31889.9
2018-04-24T07:15:01.153Z,30943.1
2018-04-24T07:16:01.251Z,31024.2
2018-04-24T07:17:01.111Z,31427.6
2018-04-24T07:18:01.107Z,31918.1
2018-04-24T07:19:01.108Z,32256.0
2018-04-24T07:20:01.134Z,32749.7
2018-04-24T07:21:01.245Z,32731.9
2018-04-24T07:22:01.107Z,33870.9
2018-04-24T07:23:01.111Z,34407.9
2018-04-24T07:24:01.110Z,34774.8
2018-04-24T07:25:01.145Z,34154.1
2018-04-24T07:26:01.261Z,33888.2
2018-04-24T07:27:01.112Z,33821.4
2018-04-24T07:28:01.110Z,33706.1
2018-04-24T07:29:01.109Z,33984.5
2018-04-24T07:30:01.143Z,34447.0
2018-04-24T07:31:01.257Z,34189.3
2018-04-24T07:32:01.108Z,33726.8
2018-04-24T07:33:01.184Z,33177.9
2018-04-24T07:34:01.106Z,32823.6
2018-04-24T07:35:01.137Z,32367.5
2018-04-24T07:36:01.249Z,32443.5
2018-04-24T07:37:01.109Z,32559.7
2018-04-24T07:38:01.108Z,33175.9
2018-04-24T07:39:01.110Z,33504.1
2018-04-24T07:40:01.147Z,34273.8
2018-04-24T07:41:01.289Z,35991.7
2018-04-24T07:42:01.112Z,37691.7
2018-04-24T07:43:01.115Z,40395.5
2018-04-24T07:44:01.114Z,42603.7
2018-04-24T07:45:01.149Z,44372.9
2018-04-24T07:46:01.258Z,46180.5
2018-04-24T07:47:01.104Z,47597.8
2018-04-24T07:48:01.120Z,48912.0
2018-04-24T07:49:01.110Z,50228.3
2018-04-24T07:50:01.144Z,51048.3
2018-04-24T07:51:01.316Z,51183.7
2018-04-24T07:52:01.103Z,50685.3
2018-04-24T07:53:01.109Z,49390.4
2018-04-24T07:54:01.110Z,49379.1
2018-04-24T07:55:01.136Z,49378.5
2018-04-24T07:56:01.257Z,48280.1
2018-04-24T07:57:01.109Z,47357.1
2018-04-24T07:58:01.114Z,45612.3
2018-04-24T07:59:01.140Z,43686.3
2018-04-24T08:00:01.114Z,42426.1
2018-04-24T08:01:01.258Z,41220.8
2018-04-24T08:02:01.119Z,40512.6
2018-04-24T08:03:01.113Z,39784.3
2018-04-24T08:04:01.138Z,39323.0
2018-04-24T08:05:01.117Z,39727.6
2018-04-24T08:06:01.358Z,40082.6
2018-04-24T08:07:01.112Z,40266.2
2018-04-24T08:08:01.115Z,40179.3
2018-04-24T08:09:01.120Z,39096.3
2018-04-24T08:10:01.118Z,38947.1
2018-04-24T08:11:01.323Z,39624.1
2018-04-24T08:12:01.150Z,39398.9
2018-04-24T08:13:01.115Z,39146.7
2018-04-24T08:14:01.113Z,39022.0
2018-04-24T08:15:01.121Z,38585.7
2018-04-24T08:16:01.276Z,38608.9
2018-04-24T08:18:01.134Z,38897.1
2018-04-24T08:19:01.104Z,38600.9
2018-04-24T08:20:01.095Z,38146.8
2018-04-24T08:21:01.101Z,36988.7
2018-04-24T08:22:01.256Z,35467.9
2018-04-24T08:23:01.140Z,34305.8
2018-04-24T08:24:01.101Z,34194.1
2018-04-24T08:25:01.102Z,33638.3
2018-04-24T08:26:01.097Z,32674.7
2018-04-24T08:27:01.245Z,31687.1
2018-04-24T08:28:01.134Z,31423.7
2018-04-24T08:29:01.112Z,31335.6
2018-04-24T08:30:01.095Z,31038.5
2018-04-24T08:31:01.100Z,31448.0
2018-04-24T08:32:01.280Z,31338.9
2018-04-24T08:33:01.146Z,31075.9
2018-04-24T08:34:01.100Z,31416.3
2018-04-24T08:35:01.101Z,31355.5
2018-04-24T08:36:01.101Z,31687.0
2018-04-24T08:37:01.241Z,32576.7
2018-04-24T08:38:01.137Z,35085.5
2018-04-24T08:39:01.160Z,36759.9
2018-04-24T08:40:01.162Z,38181.6
2018-04-24T08:41:01.100Z,39391.4
2018-04-24T08:42:01.249Z,41051.1
2018-04-24T08:43:01.146Z,43269.5
2018-04-24T08:44:01.100Z,45354.6
2018-04-24T08:45:01.102Z,47702.5
2018-04-24T08:46:01.104Z,49458.5
2018-04-24T08:47:01.246Z,51557.9
2018-04-24T08:48:01.246Z,53462.9
2018-04-24T08:49:01.104Z,55424.7
2018-04-24T08:50:01.101Z,57728.2
2018-04-24T08:51:01.106Z,59871.9
2018-04-24T08:52:01.254Z,61928.0
2018-04-24T08:53:01.143Z,62317.1
2018-04-24T08:54:01.114Z,62505.1
2018-04-24T08:55:01.104Z,63856.8
2018-04-24T08:56:01.107Z,65076.1
2018-04-24T08:57:01.258Z,65389.8
2018-04-24T09:00:02.159Z,65389.8
2018-04-24T09:03:01.108Z,65535.0
2018-04-24T09:15:01.147Z,65535.0
2018-04-24T09:30:01.114Z,65535.0
2018-04-24T09:45:01.108Z,65535.0
2018-04-24T10:00:02.158Z,65535.0
2018-04-24T10:15:02.358Z,65535.0
2018-04-24T10:30:01.441Z,65535.0
2018-04-24T10:45:01.152Z,65535.0
2018-04-24T11:00:02.139Z,65535.0
2018-04-24T11:15:01.178Z,65535.0
2018-04-24T11:30:01.172Z,65535.0
2018-04-24T11:45:01.143Z,65535.0
2018-04-24T12:00:02.173Z,65535.0
2018-04-24T12:15:01.316Z,65535.0
2018-04-24T12:30:01.140Z,65535.0
2018-04-24T12:45:01.103Z,65535.0
2018-04-24T13:00:01.125Z,65535.0
2018-04-24T13:15:01.115Z,65535.0
2018-04-24T13:30:01.178Z,65535.0
2018-04-24T13:45:01.115Z,65535.0
2018-04-24T14:00:01.172Z,65535.0
2018-04-24T14:15:01.110Z,65535.0
2018-04-24T14:30:02.168Z,65535.0
2018-04-24T14:45:01.150Z,65535.0
2018-04-24T15:00:01.252Z,65535.0
2018-04-24T15:15:01.131Z,65535.0
2018-04-24T15:30:01.116Z,65535.0
2018-04-24T15:45:01.109Z,65535.0
2018-04-24T16:00:01.166Z,65535.0
2018-04-24T16:15:01.098Z,65522.2
2018-04-24T16:28:01.122Z,65399.4
2018-04-24T16:29:01.102Z,65156.5
2018-04-24T16:30:01.137Z,64870.8
2018-04-24T16:31:01.102Z,64433.9
2018-04-24T16:32:01.390Z,63763.6
2018-04-24T16:33:01.130Z,62960.5
2018-04-24T16:34:01.109Z,62108.4
2018-04-24T16:35:01.115Z,61338.7
2018-04-24T16:36:01.114Z,60383.1
2018-04-24T16:37:01.315Z,59324.7
2018-04-24T16:38:01.120Z,58418.7
2018-04-24T16:39:01.094Z,57844.8
2018-04-24T16:40:01.108Z,57373.5
2018-04-24T16:41:01.135Z,56861.5
2018-04-24T16:42:01.246Z,56406.3
2018-04-24T16:43:01.130Z,56090.9
2018-04-24T16:44:01.103Z,55875.9
2018-04-24T16:45:01.162Z,55716.3
2018-04-24T16:46:01.160Z,55740.9
2018-04-24T16:47:01.252Z,56025.5
2018-04-24T16:48:01.125Z,56453.2
2018-04-24T16:49:01.105Z,56950.7
2018-04-24T16:50:01.101Z,57329.9
2018-04-24T16:51:01.173Z,57752.6
2018-04-24T16:52:01.273Z,57851.0
2018-04-24T16:53:01.107Z,57593.5
2018-04-24T16:54:01.119Z,56877.6
2018-04-24T16:55:01.115Z,56007.3
2018-04-24T16:56:01.105Z,55125.3
2018-04-24T16:57:01.285Z,54170.6
2018-04-24T16:58:01.108Z,53384.2
2018-04-24T16:59:01.121Z,52560.7
2018-04-24T17:00:01.130Z,51442.1
2018-04-24T17:01:01.107Z,50277.7
2018-04-24T17:02:01.281Z,49036.3
2018-04-24T17:03:01.117Z,47650.5
2018-04-24T17:04:01.114Z,46198.4
2018-04-24T17:05:01.106Z,44879.1
2018-04-24T17:06:01.185Z,44039.1
2018-04-24T17:07:01.319Z,43532.6
2018-04-24T17:08:01.109Z,42952.8
2018-04-24T17:10:02.155Z,42705.4
2018-04-24T17:11:01.097Z,42896.7
2018-04-24T17:12:01.301Z,42555.9
2018-04-24T17:13:01.091Z,41921.1
2018-04-24T17:14:01.096Z,41546.1
2018-04-24T17:15:01.092Z,41348.5
2018-04-24T17:16:01.100Z,41136.0
2018-04-24T17:17:01.413Z,40986.7
2018-04-24T17:18:01.135Z,40878.1
2018-04-24T17:19:01.087Z,40513.3
2018-04-24T17:20:01.140Z,40068.8
2018-04-24T17:21:01.096Z,39631.5
2018-04-24T17:22:01.316Z,39006.7
2018-04-24T17:23:01.117Z,38494.7
2018-04-24T17:24:01.092Z,38117.7
2018-04-24T17:25:01.092Z,37425.0
2018-04-24T17:26:01.092Z,36222.5
2018-04-24T17:27:01.235Z,35493.8
2018-04-24T17:28:01.118Z,34980.2
2018-04-24T17:29:01.091Z,34006.7
2018-04-24T17:30:01.096Z,32915.4
2018-04-24T17:31:01.094Z,32076.4
2018-04-24T17:32:01.237Z,31139.9
2018-04-24T17:33:01.118Z,30249.1
2018-04-24T17:34:01.096Z,29718.5
2018-04-24T17:35:01.101Z,29440.3
2018-04-24T17:36:01.116Z,28951.5
2018-04-24T17:37:01.250Z,28321.2
2018-04-24T17:38:01.132Z,27636.3
2018-04-24T17:39:01.094Z,27096.7
2018-04-24T17:40:01.093Z,26684.3
2018-04-24T17:41:01.099Z,26368.5
2018-04-24T17:42:01.268Z,26167.5
2018-04-24T17:43:01.110Z,26067.0
2018-04-24T17:44:01.100Z,25981.0
2018-04-24T17:45:01.101Z,25893.3
2018-04-24T17:46:01.103Z,25831.9
2018-04-24T17:47:01.272Z,25737.9
2018-04-24T17:48:01.100Z,25559.7
2018-04-24T17:49:01.142Z,25288.0
2018-04-24T17:50:01.135Z,24825.6
2018-04-24T17:51:01.106Z,24451.8
2018-04-24T17:52:01.236Z,24064.9
2018-04-24T17:53:01.096Z,23688.9
2018-04-24T17:54:01.125Z,23261.1
2018-04-24T17:55:01.103Z,22916.5
2018-04-24T17:56:01.111Z,22571.9
2018-04-24T17:57:01.332Z,22243.3
2018-04-24T17:58:01.103Z,21966.9
2018-04-24T17:59:01.098Z,21528.6
2018-04-24T18:00:01.096Z,21028.9
2018-04-24T18:01:01.099Z,20617.6
2018-04-24T18:02:01.275Z,20281.8
2018-04-24T18:03:01.102Z,19980.3
2018-04-24T18:04:01.112Z,19770.9
2018-04-24T18:05:01.108Z,19561.0
2018-04-24T18:06:01.096Z,19332.5
2018-04-24T18:07:01.271Z,19057.3
2018-04-24T18:08:01.104Z,18713.9
2018-04-24T18:09:01.105Z,18353.4
2018-04-24T18:10:01.108Z,17826.2
2018-04-24T18:11:01.105Z,17273.3
2018-04-24T18:12:01.318Z,16657.8
2018-04-24T18:13:01.105Z,15952.7
2018-04-24T18:14:01.108Z,15387.5
2018-04-24T18:15:01.108Z,14861.0
2018-04-24T18:16:01.169Z,14257.4
2018-04-24T18:17:02.265Z,13624.7
2018-04-24T18:18:01.123Z,12975.3
2018-04-24T18:19:01.163Z,12321.5
2018-04-24T18:20:01.105Z,11697.5
2018-04-24T18:21:01.115Z,11078.3
2018-04-24T18:22:01.252Z,10483.4
2018-04-24T18:23:01.113Z,9955.3
2018-04-24T18:24:01.140Z,9468.4
2018-04-24T18:25:01.111Z,9024.3
2018-04-24T18:26:01.107Z,8609.3
2018-04-24T18:27:01.325Z,8212.2
2018-04-24T18:29:01.121Z,7795.9
2018-04-24T18:30:01.088Z,7377.3
2018-04-24T18:31:01.139Z,6957.1
2018-04-24T18:32:01.096Z,6536.8
2018-04-24T18:33:01.239Z,6117.5
2018-04-24T18:34:01.163Z,5709.9
2018-04-24T18:35:01.104Z,5319.9
2018-04-24T18:36:01.124Z,4947.7
2018-04-24T18:37:01.093Z,4592.9
2018-04-24T18:38:01.247Z,4254.3
2018-04-24T18:39:01.098Z,3931.7
2018-04-24T18:40:01.100Z,3625.5
2018-04-24T18:41:01.133Z,3335.5
2018-04-24T18:42:01.099Z,3061.6
2018-04-24T18:43:01.245Z,2805.7
2018-04-24T18:44:01.102Z,2594.5
2018-04-24T18:45:01.108Z,2401.7
2018-04-24T18:46:01.132Z,2225.6
2018-04-24T18:47:01.098Z,2063.9
2018-04-24T18:48:01.382Z,1915.2
2018-04-24T18:49:01.102Z,1779.6
2018-04-24T18:50:01.106Z,1655.7
2018-04-24T18:51:01.136Z,1541.4
2018-04-24T18:52:01.106Z,1435.2
2018-04-24T18:53:01.332Z,1335.5
2018-04-24T18:54:01.098Z,1240.1
2018-04-24T18:55:01.096Z,1147.5
2018-04-24T18:56:01.098Z,1057.8
2018-04-24T18:57:01.129Z,971.3
2018-04-24T18:58:01.253Z,888.2
2018-04-24T18:59:01.253Z,808.5
2018-04-24T19:00:01.098Z,732.7
2018-04-24T19:01:01.107Z,661.1
2018-04-24T19:02:01.133Z,594.1
2018-04-24T19:03:01.381Z,531.5
2018-04-24T19:04:01.102Z,473.8
2018-04-24T19:05:01.103Z,421.2
2018-04-24T19:06:01.107Z,373.9
2018-04-24T19:07:01.131Z,331.6
2018-04-24T19:08:01.253Z,293.6
2018-04-24T19:09:01.113Z,259.9
2018-04-24T19:10:01.103Z,230.5
2018-04-24T19:11:01.104Z,204.5
2018-04-24T19:12:01.136Z,181.5
2018-04-24T19:13:01.276Z,160.9
2018-04-24T19:14:01.106Z,142.7
2018-04-24T19:15:01.104Z,126.3
2018-04-24T19:16:01.108Z,111.5
2018-04-24T19:17:01.129Z,98.2
2018-04-24T19:18:01.301Z,86.2
2018-04-24T19:19:01.109Z,75.3
2018-04-24T19:20:01.169Z,65.6
2018-04-24T19:21:01.105Z,57.0
2018-04-24T19:22:01.110Z,49.4
2018-04-24T19:23:01.288Z,42.7
2018-04-24T19:24:01.112Z,36.7
2018-04-24T19:25:01.117Z,31.5
2018-04-24T19:26:01.117Z,26.9
2018-04-24T19:27:01.109Z,22.9
2018-04-24T19:29:01.334Z,19.4
2018-04-24T19:30:01.100Z,16.4
2018-04-24T19:31:01.093Z,13.9
2018-04-24T19:32:01.125Z,11.7
2018-04-24T19:33:01.156Z,9.9
2018-04-24T19:34:01.242Z,8.4
2018-04-24T19:35:01.102Z,7.1
2018-04-24T19:36:01.096Z,6.0
2018-04-24T19:37:01.126Z,5.1
2018-04-24T19:38:01.130Z,4.3
2018-04-24T19:39:01.243Z,3.6
2018-04-24T19:40:01.092Z,3.1
2018-04-24T19:41:01.096Z,2.6
2018-04-24T19:42:01.099Z,2.2
2018-04-24T19:43:01.123Z,1.9
2018-04-24T19:44:01.234Z,1.7
2018-04-24T19:45:01.092Z,1.4
2018-04-24T19:46:01.095Z,1.2
2018-04-24T19:47:01.095Z,1.0
2018-04-24T19:48:01.121Z,0.9
2018-04-24T19:49:02.266Z,0.7
2018-04-24T19:50:01.118Z,0.6
2018-04-24T19:51:01.095Z,0.5
2018-04-24T19:53:01.131Z,0.4
2018-04-24T19:54:01.244Z,0.3
2018-04-24T19:56:01.117Z,0.2
2018-04-24T19:57:01.137Z,0.1
